.
WxDataArchive / Data Records for 2016-04-26
2016-04-25 April 2016 2016-04-27

Data Records for Tuesday, 26 April 2016

Time	Temp	Chill	HIndex	Humid	Dewpt	 Wind 	HiWind	WindDir	Rain 	Barom
-----	----	-----	------	-----	-----	------	------	-------	-----	-----
00:00	69.6	69.6	69.6	55	52.7	1	4	270	0.00	29.606 
00:05	69.8	69.8	69.8	54	52.4	1	5	270	0.00	29.606 
00:10	69.9	69.9	69.9	54	52.5	0	5	248	0.00	29.606 
00:15	69.8	69.8	69.8	54	52.4	0	2	248	0.00	29.604 
00:20	69.8	69.8	69.8	54	52.4	0	2	248	0.00	29.604 
00:25	69.6	69.6	69.6	54	52.2	0	2	248	0.00	29.604 
00:30	69.6	69.6	69.6	54	52.2	0	2	248	0.00	29.604 
00:35	69.6	69.6	69.6	54	52.2	1	4	248	0.00	29.604 
00:40	69.8	69.8	69.8	54	52.4	1	4	248	0.00	29.604 
00:45	69.8	69.8	69.8	54	52.4	1	3	270	0.00	29.613 
00:50	69.8	69.8	69.8	54	52.4	1	3	270	0.00	29.613 
00:55	69.6	69.6	69.6	54	52.2	1	5	248	0.00	29.613 
01:00	69.6	69.6	69.6	54	52.2	1	4	315	0.00	29.610 
01:05	69.6	69.6	69.6	54	52.2	0	3	270	0.00	29.610 
01:10	69.6	69.6	69.6	55	52.7	1	4	248	0.00	29.610 
01:15	69.6	69.6	69.6	54	52.2	1	3	270	0.00	29.612 
01:20	69.6	69.6	69.6	54	52.2	1	4	270	0.00	29.612 
01:25	69.6	69.6	69.6	54	52.2	1	2	270	0.00	29.612 
01:30	69.4	69.4	69.4	55	52.5	0	2	270	0.00	29.616 
01:35	69.4	69.4	69.4	55	52.5	0	2	292	0.00	29.616 
01:40	69.3	69.3	69.3	55	52.4	1	4	248	0.00	29.616 
01:45	69.3	69.3	69.3	56	52.9	0	2	315	0.00	29.618 
01:50	69.3	69.3	69.3	56	52.9	1	3	292	0.00	29.618 
01:55	69.4	69.4	69.4	56	53.0	0	2	248	0.00	29.618 
02:00	69.3	69.3	69.3	56	52.9	0	2	248	0.00	29.608 
02:05	69.3	69.3	69.3	56	52.9	0	2	248	0.00	29.608 
02:10	69.3	69.3	69.3	56	52.9	0	3	248	0.00	29.608 
02:15	69.4	69.4	69.4	56	53.0	1	4	248	0.00	29.606 
02:20	69.4	69.4	69.4	56	53.0	1	4	248	0.00	29.606 
02:25	69.6	69.6	69.6	56	53.2	0	2	225	0.00	29.606 
02:30	69.6	69.6	69.6	56	53.2	1	3	292	0.00	29.608 
02:35	69.6	69.6	69.6	57	53.7	0	3	270	0.00	29.608 
02:40	69.4	69.4	69.4	57	53.5	0	2	270	0.00	29.608 
02:45	69.4	69.4	69.4	58	54.0	0	2	270	0.00	29.609 
02:50	69.3	69.3	69.3	58	53.9	0	4	292	0.00	29.609 
02:55	69.4	69.4	69.4	58	54.0	2	4	292	0.00	29.609 
03:00	69.4	69.4	69.4	59	54.4	1	4	292	0.00	29.633 
03:05	69.3	69.3	69.3	60	54.8	0	4	292	0.00	29.633 
03:10	68.8	68.8	68.8	61	54.8	0	1	292	0.00	29.633 
03:15	68.4	68.4	68.4	62	54.9	0	3	292	0.00	29.636 
03:20	67.9	67.9	67.9	63	54.8	1	5	292	0.00	29.636 
03:25	67.6	67.6	67.6	65	55.4	1	4	292	0.00	29.636 
03:30	67.3	67.3	67.3	65	55.1	1	3	292	0.00	29.637 
03:35	67.1	67.1	67.1	67	55.8	1	2	292	0.00	29.637 
03:40	67.1	67.1	67.1	67	55.8	1	5	270	0.00	29.637 
03:45	67.1	67.1	67.1	68	56.2	0	3	270	0.00	29.639 
03:50	67.1	67.1	67.1	68	56.2	0	1	270	0.00	29.639 
03:55	66.9	66.9	66.9	69	56.4	0	1	270	0.00	29.639 
04:00	66.8	66.8	66.8	70	56.7	0	0	---	0.00	29.636 
04:05	66.6	66.6	66.6	71	56.9	0	0	---	0.00	29.636 
04:10	66.3	66.3	66.3	71	56.6	0	0	---	0.00	29.636 
04:15	66.0	66.0	66.0	72	56.7	0	0	---	0.00	29.636 
04:20	65.6	65.6	65.6	72	56.3	0	0	---	0.00	29.636 
04:25	65.2	65.2	65.2	73	56.3	0	0	---	0.00	29.636 
04:30	64.8	64.8	64.8	73	55.9	0	0	---	0.00	29.638 
04:35	64.5	64.5	64.5	74	56.0	0	0	---	0.00	29.638 
04:40	64.3	64.3	64.3	75	56.2	0	0	---	0.00	29.638 
04:45	64.0	64.0	64.0	75	55.9	0	0	---	0.00	29.639 
04:50	63.9	63.9	63.9	76	56.2	0	0	---	0.00	29.639 
04:55	63.9	63.9	63.9	77	56.5	0	0	---	0.00	29.639 
05:00	63.7	63.7	63.7	77	56.3	0	0	---	0.00	29.639 
05:05	63.7	63.7	63.7	77	56.3	0	0	---	0.00	29.639 
05:10	63.5	63.5	63.5	77	56.2	0	0	---	0.00	29.639 
05:15	63.5	63.5	63.5	78	56.5	0	0	---	0.00	29.640 
05:20	63.5	63.5	63.5	78	56.5	0	0	---	0.00	29.640 
05:25	63.7	63.7	63.7	78	56.7	0	0	---	0.00	29.640 
05:30	63.9	63.9	63.9	78	56.9	0	0	---	0.00	29.641 
05:35	63.9	63.9	63.9	78	56.9	0	0	---	0.00	29.641 
05:40	64.0	64.0	64.0	78	57.0	0	1	270	0.00	29.641 
05:45	64.3	64.3	64.3	77	56.9	0	1	270	0.00	29.643 
05:50	64.5	64.5	64.5	77	57.1	0	1	270	0.00	29.643 
05:55	64.5	64.5	64.5	77	57.1	0	0	---	0.00	29.643 
06:00	64.7	64.7	64.7	77	57.3	0	2	270	0.00	29.647 
06:05	64.8	64.8	64.8	77	57.4	0	0	---	0.00	29.647 
06:10	64.8	64.8	64.8	77	57.4	0	0	---	0.00	29.647 
06:15	64.8	64.8	64.8	77	57.4	0	0	---	0.00	29.651 
06:20	64.7	64.7	64.7	78	57.7	0	0	---	0.00	29.651 
06:25	64.7	64.7	64.7	78	57.7	0	1	270	0.00	29.651 
06:30	64.7	64.7	64.7	78	57.7	0	0	---	0.00	29.658 
06:35	64.8	64.8	64.8	79	58.1	0	1	270	0.00	29.658 
06:40	65.0	65.0	65.0	79	58.3	0	1	270	0.00	29.658 
06:45	65.3	65.3	65.3	79	58.6	0	1	270	0.00	29.668 
06:50	65.5	65.5	65.5	78	58.5	0	3	270	0.00	29.668 
06:55	65.8	65.8	65.8	78	58.7	0	2	270	0.00	29.668 
07:00	66.0	66.0	66.0	78	58.9	0	2	270	0.00	29.670 
07:05	66.1	66.1	66.1	78	59.0	0	1	270	0.00	29.670 
07:10	66.1	66.1	66.1	78	59.0	0	2	270	0.00	29.670 
07:15	66.1	66.1	66.1	78	59.0	0	2	270	0.00	29.674 
07:20	66.3	66.3	66.3	78	59.2	0	2	270	0.00	29.674 
07:25	66.3	66.3	66.3	78	59.2	0	1	270	0.00	29.674 
07:30	66.3	66.3	66.3	78	59.2	0	2	270	0.00	29.684 
07:35	66.4	66.4	66.4	78	59.3	0	1	270	0.00	29.684 
07:40	66.4	66.4	66.4	78	59.3	0	2	270	0.00	29.684 
07:45	66.4	66.4	66.4	78	59.3	0	1	270	0.00	29.688 
07:50	66.6	66.6	66.6	79	59.9	0	1	270	0.00	29.688 
07:55	66.6	66.6	66.6	78	59.5	0	2	270	0.00	29.688 
08:00	66.8	66.8	66.8	78	59.7	0	1	270	0.00	29.687 
08:05	66.8	66.8	66.8	78	59.7	0	2	270	0.00	29.687 
08:10	66.9	66.9	66.9	78	59.8	1	3	270	0.00	29.687 
08:15	67.3	67.3	67.3	78	60.2	0	4	270	0.00	29.693 
08:20	67.6	67.6	67.6	77	60.1	1	3	270	0.00	29.693 
08:25	67.6	67.6	67.6	77	60.1	1	3	292	0.00	29.693 
08:30	67.8	67.8	67.8	77	60.3	1	4	292	0.00	29.697 
08:35	67.8	67.8	67.8	77	60.3	1	3	292	0.00	29.697 
08:40	67.9	67.9	67.9	76	60.0	1	3	292	0.00	29.697 
08:45	68.1	68.1	68.1	74	59.5	1	5	292	0.00	29.700 
08:50	68.3	68.3	68.3	72	58.9	1	3	292	0.00	29.700 
08:55	68.4	68.4	68.4	69	57.8	2	4	292	0.00	29.700 
09:00	68.4	68.4	68.4	69	57.8	1	5	315	0.00	29.702 
09:05	68.4	68.4	68.4	65	56.2	2	5	292	0.00	29.702 
09:10	68.8	68.8	68.8	62	55.2	1	3	292	0.00	29.702 
09:15	68.9	68.9	68.9	60	54.4	2	4	270	0.00	29.703 
09:20	69.3	69.3	69.3	59	54.3	2	4	292	0.00	29.703 
09:25	69.6	69.6	69.6	59	54.6	1	3	292	0.00	29.703 
09:30	69.9	69.9	69.9	57	54.0	2	4	292	0.00	29.704 
09:35	70.1	70.1	70.1	58	54.6	1	4	292	0.00	29.704 
09:40	70.1	70.1	70.1	58	54.6	2	4	292	0.00	29.704 
09:45	69.8	69.8	69.8	58	54.3	2	6	292	0.00	29.709 
09:50	69.8	69.8	69.8	58	54.3	2	5	292	0.00	29.709 
09:55	69.8	69.8	69.8	58	54.3	1	3	292	0.00	29.709 
10:00	69.8	69.8	69.8	58	54.3	1	3	292	0.00	29.711 
10:05	70.1	70.1	70.1	57	54.1	1	4	292	0.00	29.711 
10:10	70.3	70.3	70.3	58	54.8	1	4	292	0.00	29.711 
10:15	70.3	70.3	70.3	58	54.8	2	4	292	0.00	29.717 
10:20	70.6	70.6	70.6	58	55.1	1	4	315	0.00	29.717 
10:25	71.1	71.1	71.1	56	54.6	1	4	315	0.00	29.717 
10:30	71.3	71.3	71.3	55	54.3	2	4	315	0.00	29.719 
10:35	71.6	71.6	71.6	54	54.1	1	3	315	0.00	29.719 
10:40	71.8	71.8	71.8	53	53.7	2	6	292	0.00	29.719 
10:45	71.8	71.8	71.8	51	52.7	2	7	315	0.00	29.718 
10:50	71.8	71.8	71.8	51	52.7	2	7	315	0.00	29.718 
10:55	72.1	72.1	72.1	50	52.4	1	4	315	0.00	29.718 
11:00	72.3	72.3	72.3	51	53.1	1	3	292	0.00	29.718 
11:05	72.5	72.5	72.5	51	53.3	2	5	315	0.00	29.718 
11:10	72.8	72.8	72.8	50	53.1	2	5	292	0.00	29.718 
11:15	72.8	72.8	72.8	49	52.5	2	7	338	0.00	29.720 
11:20	72.8	72.8	72.8	50	53.1	2	7	0	0.00	29.720 
11:25	72.7	72.7	72.7	51	53.5	2	7	292	0.00	29.720 
11:30	72.7	72.7	72.7	52	54.0	2	6	292	0.00	29.721 
11:35	72.8	72.8	72.8	53	54.7	1	5	338	0.00	29.721 
11:40	73.0	73.0	73.0	52	54.3	2	6	270	0.00	29.721 
11:45	73.0	73.0	73.0	52	54.3	2	5	315	0.00	29.729 
11:50	73.2	73.2	73.2	56	56.5	1	4	338	0.00	29.729 
11:55	73.3	73.3	73.3	55	56.1	1	3	292	0.00	29.729 
12:00	73.3	73.3	73.3	54	55.6	1	4	315	0.00	29.729 
12:05	73.2	73.2	73.2	54	55.5	1	3	0	0.00	29.729 
12:10	73.2	73.2	73.2	55	56.0	1	3	315	0.00	29.729 
12:15	73.2	73.2	73.2	55	56.0	1	4	315	0.00	29.732 
12:20	73.2	73.2	73.2	55	56.0	2	4	292	0.00	29.732 
12:25	72.8	72.8	72.8	56	56.2	2	6	292	0.00	29.732 
12:30	72.7	72.7	72.7	54	55.1	1	4	338	0.00	29.734 
12:35	72.7	72.7	72.7	54	55.1	2	5	292	0.00	29.734 
12:40	72.8	72.8	72.8	54	55.2	2	4	292	0.00	29.734 
12:45	72.7	72.7	72.7	54	55.1	2	6	0	0.00	29.736 
12:50	72.5	72.5	72.5	54	54.9	1	3	0	0.00	29.736 
12:55	72.8	72.8	72.8	54	55.2	1	4	292	0.00	29.736 
13:00	73.0	73.0	73.0	54	55.4	2	6	292	0.00	29.744 
13:05	72.8	72.8	72.8	52	54.1	2	5	315	0.00	29.744 
13:10	72.5	72.5	72.5	50	52.8	2	5	338	0.00	29.744 
13:15	72.7	72.7	72.7	52	54.0	2	5	292	0.00	29.743 
13:20	72.3	72.3	72.3	52	53.7	1	6	338	0.00	29.743 
13:25	72.3	72.3	72.3	53	54.2	1	4	315	0.00	29.743 
13:30	72.5	72.5	72.5	54	54.9	2	5	315	0.00	29.740 
13:35	72.5	72.5	72.5	57	56.4	1	3	315	0.00	29.740 
13:40	72.3	72.3	72.3	57	56.2	1	3	0	0.00	29.740 
13:45	72.5	72.5	72.5	56	55.9	1	4	292	0.00	29.745 
13:50	72.3	72.3	72.3	55	55.2	1	5	292	0.00	29.745 
13:55	72.5	72.5	72.5	59	57.3	1	3	292	0.00	29.745 
14:00	72.5	72.5	72.5	57	56.4	1	4	315	0.00	29.747 
14:05	72.1	72.1	72.1	58	56.5	1	6	315	0.00	29.747 
14:10	71.8	71.8	71.8	58	56.2	1	4	270	0.00	29.747 
14:15	71.6	71.6	71.6	58	56.0	2	5	292	0.00	29.750 
14:20	71.5	71.5	71.5	61	57.3	1	4	338	0.00	29.750 
14:25	71.3	71.3	71.3	60	56.7	2	7	315	0.00	29.750 
14:30	70.8	70.8	70.8	60	56.2	1	5	315	0.00	29.750 
14:35	70.4	70.4	70.4	60	55.8	2	7	270	0.00	29.750 
14:40	70.3	70.3	70.3	61	56.2	2	4	292	0.00	29.750 
14:45	70.1	70.1	70.1	62	56.5	1	4	315	0.00	29.756 
14:50	70.1	70.1	70.1	62	56.5	1	5	292	0.00	29.756 
14:55	69.9	69.9	69.9	62	56.3	1	3	292	0.00	29.756 
15:00	69.9	69.9	69.9	61	55.8	1	5	315	0.00	29.761 
15:05	69.8	69.8	69.8	61	55.7	1	4	292	0.00	29.761 
15:10	69.8	69.8	69.8	60	55.3	1	4	315	0.00	29.761 
15:15	69.6	69.6	69.6	61	55.5	1	5	292	0.00	29.767 
15:20	69.6	69.6	69.6	61	55.5	1	5	338	0.00	29.767 
15:25	69.8	69.8	69.8	63	56.6	0	3	338	0.00	29.767 
15:30	69.8	69.8	69.8	60	55.3	2	9	292	0.00	29.760 
15:35	69.8	69.8	69.8	62	56.2	1	6	292	0.00	29.760 
15:40	69.9	69.9	69.9	61	55.8	1	6	90	0.00	29.760 
15:45	69.6	69.6	69.6	60	55.1	2	5	292	0.00	29.758 
15:50	69.6	69.6	69.6	61	55.5	1	4	68	0.00	29.758 
15:55	69.8	69.8	69.8	62	56.2	2	5	315	0.00	29.758 
16:00	69.8	69.8	69.8	62	56.2	1	4	292	0.00	29.758 
16:05	69.6	69.6	69.6	63	56.4	1	5	0	0.00	29.758 
16:10	68.9	68.9	68.9	63	55.8	2	6	0	0.00	29.758 
16:15	68.3	68.3	68.3	64	55.6	1	5	0	0.00	29.761 
16:20	67.8	67.8	67.8	65	55.6	2	9	0	0.00	29.761 
16:25	67.6	67.6	67.6	65	55.4	1	4	68	0.00	29.761 
16:30	67.8	67.8	67.8	65	55.6	1	3	68	0.00	29.771 
16:35	67.6	67.6	67.6	65	55.4	1	6	45	0.00	29.771 
16:40	67.1	67.1	67.1	65	54.9	1	6	338	0.00	29.771 
16:45	66.9	66.9	66.9	64	54.3	1	4	68	0.00	29.773 
16:50	66.8	66.8	66.8	65	54.6	2	5	338	0.00	29.773 
16:55	66.8	66.8	66.8	64	54.2	2	6	315	0.00	29.773 
17:00	66.6	66.6	66.6	64	54.0	2	6	0	0.00	29.771 
17:05	66.6	66.6	66.6	65	54.5	1	4	292	0.00	29.771 
17:10	66.8	66.8	66.8	65	54.6	1	3	292	0.00	29.771 
17:15	66.6	66.6	66.6	65	54.5	1	4	45	0.00	29.773 
17:20	66.4	66.4	66.4	64	53.8	1	5	112	0.00	29.773 
17:25	66.1	66.1	66.1	65	54.0	1	4	68	0.00	29.773 
17:30	66.0	66.0	66.0	65	53.9	1	5	68	0.00	29.775 
17:35	65.8	65.8	65.8	64	53.3	1	4	112	0.00	29.775 
17:40	66.0	66.0	66.0	65	53.9	1	4	68	0.00	29.775 
17:45	66.0	66.0	66.0	63	53.0	1	5	0	0.00	29.775 
17:50	65.8	65.8	65.8	64	53.3	1	4	45	0.00	29.775 
17:55	65.6	65.6	65.6	64	53.1	1	6	68	0.00	29.775 
18:00	65.3	65.3	65.3	64	52.8	1	7	68	0.00	29.770 
18:05	65.0	65.0	65.0	66	53.4	1	6	45	0.00	29.770 
18:10	64.5	64.5	64.5	65	52.5	1	5	292	0.00	29.770 
18:15	64.2	64.2	64.2	66	52.6	1	3	270	0.00	29.774 
18:20	63.9	63.9	63.9	66	52.3	1	4	45	0.00	29.774 
18:25	63.2	63.2	63.2	66	51.6	1	4	45	0.00	29.774 
18:30	62.9	62.9	62.9	67	51.8	1	4	68	0.00	29.775 
18:35	62.7	62.7	62.7	67	51.6	1	4	68	0.00	29.775 
18:40	62.4	62.4	62.4	68	51.7	1	5	68	0.00	29.775 
18:45	62.3	62.3	62.3	68	51.6	1	4	0	0.00	29.779 
18:50	62.0	62.0	62.0	69	51.7	1	4	0	0.00	29.779 
18:55	61.8	61.8	61.8	69	51.5	1	2	0	0.00	29.779 
19:00	61.5	61.5	61.5	69	51.2	1	4	22	0.00	29.777 
19:05	61.3	61.3	61.3	71	51.8	1	4	68	0.00	29.777 
19:10	61.0	61.0	61.0	71	51.5	1	6	0	0.00	29.777 
19:15	60.7	60.7	60.7	70	50.9	1	4	68	0.00	29.781 
19:20	60.2	60.2	60.2	70	50.4	4	11	112	0.00	29.781 
19:25	59.5	59.5	59.5	73	50.8	3	10	112	0.00	29.781 
19:30	58.9	58.9	58.9	73	50.3	4	13	90	0.00	29.795 
19:35	58.4	58.4	58.4	74	50.1	2	9	90	0.00	29.795 
19:40	58.0	58.0	58.0	74	49.8	2	7	112	0.00	29.795 
19:45	57.6	57.6	57.6	74	49.4	2	7	68	0.00	29.796 
19:50	57.3	57.3	57.3	75	49.4	2	12	68	0.00	29.796 
19:55	56.9	56.9	56.9	75	49.1	4	11	90	0.00	29.796 
20:00	56.5	56.5	56.5	75	48.7	4	10	90	0.00	29.796 
20:05	56.0	56.0	56.0	76	48.5	2	7	68	0.00	29.796 
20:10	55.7	55.7	55.7	76	48.3	2	6	112	0.00	29.796 
20:15	55.4	55.4	55.4	76	48.0	2	9	90	0.00	29.812 
20:20	55.1	55.1	55.1	77	48.0	2	10	112	0.00	29.812 
20:25	54.8	54.8	54.8	77	47.7	1	7	22	0.00	29.812 
20:30	54.7	54.7	54.7	77	47.6	2	9	90	0.00	29.812 
20:35	54.5	54.5	54.5	77	47.4	2	6	112	0.00	29.812 
20:40	54.4	54.4	54.4	77	47.3	2	6	112	0.00	29.812 
20:45	54.1	54.1	54.1	78	47.4	1	6	45	0.00	29.816 
20:50	53.9	53.9	53.9	78	47.2	1	5	90	0.00	29.816 
20:55	53.8	53.8	53.8	78	47.1	1	4	90	0.00	29.816 
21:00	53.8	53.8	53.8	78	47.1	2	7	90	0.00	29.823 
21:05	53.6	53.6	53.6	78	46.9	4	10	112	0.00	29.823 
21:10	53.5	53.5	53.5	78	46.8	1	4	112	0.00	29.823 
21:15	53.3	53.3	53.3	78	46.6	1	5	90	0.00	29.821 
21:20	53.3	53.3	53.3	78	46.6	2	6	112	0.00	29.821 
21:25	53.2	53.2	53.2	79	46.9	2	5	90	0.00	29.821 
21:30	53.1	53.1	53.1	78	46.4	1	4	90	0.00	29.822 
21:35	52.8	52.8	52.8	78	46.1	1	5	90	0.00	29.822 
21:40	52.8	52.8	52.8	78	46.1	1	4	90	0.00	29.822 
21:45	52.6	52.6	52.6	79	46.3	1	4	68	0.00	29.814 
21:50	52.5	52.5	52.5	79	46.2	0	3	68	0.00	29.814 
21:55	52.5	52.5	52.5	79	46.2	2	7	0	0.00	29.814 
22:00	52.3	52.3	52.3	79	46.0	1	4	68	0.00	29.817 
22:05	52.3	52.3	52.3	79	46.0	1	5	112	0.00	29.817 
22:10	52.3	52.3	52.3	79	46.0	1	5	112	0.00	29.817 
22:15	52.3	52.3	52.3	79	46.0	2	6	112	0.00	29.828 
22:20	52.3	52.3	52.3	79	46.0	2	5	112	0.00	29.828 
22:25	52.2	52.2	52.2	79	45.9	3	7	112	0.00	29.828 
22:30	51.6	51.6	51.6	80	45.6	4	10	90	0.00	29.830 
22:35	51.1	51.1	51.1	81	45.5	4	9	90	0.00	29.830 
22:40	50.7	50.7	50.7	81	45.1	4	12	90	0.00	29.830 
22:45	50.5	50.5	50.5	81	44.9	4	9	90	0.00	29.837 
22:50	50.4	50.4	50.4	81	44.8	2	6	270	0.00	29.837 
22:55	50.2	50.2	50.2	81	44.6	3	6	112	0.00	29.837 
23:00	49.9	48.8	49.9	81	44.3	4	9	90	0.00	29.858 
23:05	49.6	48.4	49.6	82	44.3	4	11	90	0.00	29.858 
23:10	49.5	49.5	49.5	82	44.2	2	6	112	0.00	29.858 
23:15	49.5	49.5	49.5	82	44.2	2	5	90	0.00	29.861 
23:20	49.4	49.4	49.4	82	44.1	3	9	90	0.00	29.861 
23:25	49.2	49.2	49.2	82	43.9	3	7	90	0.00	29.861 
23:30	49.1	49.1	49.1	82	43.8	3	9	90	0.00	29.863 
23:35	49.1	49.1	49.1	82	43.8	3	10	90	0.00	29.863 
23:40	48.9	48.9	48.9	82	43.6	3	6	112	0.00	29.863 
23:45	48.9	48.9	48.9	82	43.6	3	6	90	0.00	29.871 
23:50	48.9	48.9	48.9	82	43.6	2	5	112	0.00	29.871 
23:55	48.9	48.9	48.9	82	43.6	2	6	90	0.00	29.871 

CoCoRaHS
IN-AL-39
A2 Web Hosting
Creative Commons License
GoDaddy
search engine by freefind advanced

loaded 2018-11-13 21:43:24 • last modified 2010-11-18 10:43:29
Privacy PolicyDisclaimer
• wx.awcolley.com is powered by PmWiki v.2002016 •
• all content (unless otherwise noted) © 2018 A W Colley